Time;durP1;ratioP1;P1;durP2;ratioP2;P2;SDS_P1;SDS_P2;PMS_P1;PMS_P2;Temp;Humidity;BMP_temperature;BMP_pressure;BME280_temperature;BME280_humidity;BME280_pressure;Samples;Min_cycle;Max_cycle;Signal;HPM_P1;HPM_P2
2023/07/22 00:01:01;;;;;;;7.57;5.43;;;589.10;2432.00;;;;;;5092150;28;20043;-60
2023/07/22 00:03:27;;;;;;;12.70;6.00;;;588.90;2432.00;;;;;;5092279;28;20485;-60
2023/07/22 00:06:10;;;;;;;10.20;6.07;;;588.90;2432.00;;;;;;5092050;28;20020;-60
2023/07/22 00:08:37;;;;;;;10.45;7.00;;;588.90;2432.00;;;;;;5092166;28;20024;-60
2023/07/22 00:11:06;;;;;;;10.45;6.50;;;588.90;2432.00;;;;;;5091963;28;20645;-60
2023/07/22 00:13:33;;;;;;;9.43;6.15;;;589.00;2432.00;;;;;;5092050;28;20028;-60
2023/07/22 00:15:59;;;;;;;9.30;6.60;;;589.00;2432.00;;;;;;5091692;28;20078;-60
2023/07/22 00:18:28;;;;;;;12.88;6.80;;;589.10;2432.00;;;;;;5091798;28;20048;-60
2023/07/22 00:20:55;;;;;;;11.23;6.13;;;589.00;2432.00;;;;;;5091664;28;20039;-60
2023/07/22 00:23:21;;;;;;;14.00;6.78;;;589.10;2432.00;;;;;;5091456;28;20036;-61
2023/07/22 00:25:47;;;;;;;12.75;6.75;;;589.10;2432.00;;;;;;5091550;28;20146;-60
2023/07/22 00:28:13;;;;;;;12.65;6.50;;;589.10;2432.00;;;;;;5091455;28;20089;-61
2023/07/22 00:30:38;;;;;;;9.43;6.72;;;589.10;2432.00;;;;;;5091536;28;20024;-60
2023/07/22 00:33:05;;;;;;;14.95;7.75;;;589.10;2432.00;;;;;;5091143;28;20024;-60
2023/07/22 00:35:31;;;;;;;12.07;6.88;;;589.00;2432.00;;;;;;5091764;28;20119;-60
2023/07/22 00:37:58;;;;;;;11.85;7.05;;;589.00;2432.00;;;;;;5091616;28;20401;-60
2023/07/22 00:40:23;;;;;;;11.32;7.07;;;589.10;2432.00;;;;;;5091333;28;20434;-60
2023/07/22 00:42:49;;;;;;;9.55;6.43;;;589.10;2432.00;;;;;;5091667;28;20055;-60
2023/07/22 00:45:15;;;;;;;13.10;7.72;;;589.10;2432.00;;;;;;5091155;28;20025;-60
2023/07/22 00:47:41;;;;;;;9.98;6.65;;;589.10;2432.00;;;;;;5091219;28;20394;-60
2023/07/22 00:50:07;;;;;;;9.93;6.38;;;589.10;2432.00;;;;;;5091127;28;20032;-62
2023/07/22 00:52:34;;;;;;;9.70;7.20;;;589.00;2432.00;;;;;;5091418;28;20024;-61
2023/07/22 00:55:00;;;;;;;11.20;6.68;;;589.00;2432.00;;;;;;5091369;28;20059;-58
2023/07/22 00:57:26;;;;;;;10.90;7.35;;;589.00;2432.00;;;;;;5090997;28;20036;-58
2023/07/22 00:59:52;;;;;;;15.38;7.55;;;588.80;2432.00;;;;;;5090853;28;20383;-59
2023/07/22 01:02:19;;;;;;;15.07;7.10;;;588.90;2432.00;;;;;;5091088;28;20085;-58
2023/07/22 01:04:45;;;;;;;12.50;7.45;;;588.90;2432.00;;;;;;5090629;28;20709;-60
2023/07/22 01:07:11;;;;;;;9.48;6.18;;;588.90;2432.00;;;;;;5091080;28;20069;-59
2023/07/22 01:09:38;;;;;;;15.48;7.15;;;588.80;2432.00;;;;;;5090646;28;20043;-58
2023/07/22 01:12:14;;;;;;;9.63;6.50;;;588.90;2432.00;;;;;;5090063;28;20016;-58
2023/07/22 01:14:41;;;;;;;10.32;6.45;;;588.90;2432.00;;;;;;5090443;28;20161;-59
2023/07/22 01:17:09;;;;;;;12.60;7.40;;;588.80;2432.00;;;;;;5090056;28;20020;-57
2023/07/22 01:19:36;;;;;;;13.40;7.28;;;588.80;2432.00;;;;;;5090219;28;20024;-59
2023/07/22 01:22:09;;;;;;;10.18;7.10;;;588.80;2432.00;;;;;;5087765;28;20566;-59
2023/07/22 01:24:35;;;;;;;17.40;7.57;;;564.10;2432.00;;;;;;5089977;28;20113;-59
2023/07/22 01:27:03;;;;;;;10.65;6.97;;;588.80;2432.00;;;;;;5087525;28;20105;-58
2023/07/22 01:29:29;;;;;;;13.32;7.60;;;564.10;2432.00;;;;;;5090109;28;20036;-58
2023/07/22 01:31:55;;;;;;;13.32;7.97;;;564.10;2432.00;;;;;;5089717;28;20382;-58
2023/07/22 01:34:22;;;;;;;11.95;7.00;;;564.10;2432.00;;;;;;5087207;28;20031;-58
2023/07/22 01:36:48;;;;;;;14.60;8.00;;;564.10;2432.00;;;;;;5090202;28;20533;-58
2023/07/22 01:39:15;;;;;;;12.40;7.38;;;564.10;2432.00;;;;;;5090025;28;20028;-57
2023/07/22 01:41:41;;;;;;;16.40;7.97;;;564.00;2432.00;;;;;;5090204;28;20039;-57
2023/07/22 01:44:07;;;;;;;11.10;7.95;;;563.90;2432.00;;;;;;5089768;28;20020;-59
2023/07/22 01:46:33;;;;;;;12.48;7.53;;;563.90;2432.00;;;;;;5089689;28;20028;-59
2023/07/22 01:48:59;;;;;;;12.60;7.32;;;564.00;2432.00;;;;;;5090358;28;20054;-59
2023/07/22 01:51:25;;;;;;;13.40;7.25;;;563.90;2432.00;;;;;;5089976;28;20032;-58
2023/07/22 01:53:51;;;;;;;11.40;7.28;;;563.90;2432.00;;;;;;5090254;28;20097;-58
2023/07/22 01:56:17;;;;;;;10.35;7.57;;;563.90;2432.00;;;;;;5089754;28;20036;-58
2023/07/22 01:58:42;;;;;;;8.40;7.47;;;564.00;2432.00;;;;;;5089953;28;20157;-61
2023/07/22 02:01:08;;;;;;;10.57;6.80;;;564.00;2432.00;;;;;;5089770;28;20547;-60
2023/07/22 02:03:34;;;;;;;12.07;7.78;;;564.10;2432.00;;;;;;5089745;28;20054;-61
2023/07/22 02:06:04;;;;;;;15.73;7.45;;;563.80;2432.00;;;;;;5089997;28;20028;-61
2023/07/22 02:08:30;;;;;;;15.82;8.30;;;563.80;2432.00;;;;;;5090181;28;20095;-60
2023/07/22 02:11:03;;;;;;;12.63;6.63;;;563.80;2432.00;;;;;;5089597;28;20424;-59
2023/07/22 02:13:29;;;;;;;14.15;6.88;;;564.00;2432.00;;;;;;5090000;28;20606;-59
2023/07/22 02:15:55;;;;;;;22.30;8.23;;;563.80;2432.00;;;;;;5089154;28;20119;-59
2023/07/22 02:18:21;;;;;;;10.95;7.00;;;563.70;2432.00;;;;;;5089762;28;20107;-58
2023/07/22 02:20:47;;;;;;;9.32;6.88;;;563.60;2432.00;;;;;;5089591;28;20028;-59
2023/07/22 02:23:12;;;;;;;11.65;7.22;;;564.00;2432.00;;;;;;5088698;28;20051;-59
2023/07/22 02:25:38;;;;;;;15.52;7.68;;;563.70;2432.00;;;;;;5089379;28;20024;-59
2023/07/22 02:28:04;;;;;;;12.98;8.23;;;563.70;2432.00;;;;;;5089379;28;20039;-59
2023/07/22 02:30:29;;;;;;;10.43;7.55;;;564.00;2432.00;;;;;;5089246;28;20059;-58
2023/07/22 02:32:56;;;;;;;17.13;8.43;;;563.70;2432.00;;;;;;5089348;28;20055;-60
2023/07/22 02:35:21;;;;;;;17.25;7.97;;;563.70;2432.00;;;;;;5089375;28;20028;-59
2023/07/22 02:37:47;;;;;;;16.27;7.25;;;563.70;2432.00;;;;;;5089489;28;20149;-59
2023/07/22 02:40:13;;;;;;;13.35;7.50;;;563.80;2432.00;;;;;;5089182;28;20111;-59
2023/07/22 02:42:39;;;;;;;15.63;6.55;;;563.70;2432.00;;;;;;5089454;28;20405;-58
2023/07/22 02:45:07;;;;;;;9.75;6.55;;;563.70;2432.00;;;;;;5089047;28;20020;-59
2023/07/22 02:47:34;;;;;;;12.93;7.28;;;563.70;2432.00;;;;;;5089002;28;20043;-59
2023/07/22 02:50:00;;;;;;;17.15;7.00;;;563.60;2432.00;;;;;;5089331;28;20046;-59
2023/07/22 02:52:26;;;;;;;12.93;7.15;;;563.50;2432.00;;;;;;5089022;28;20048;-59
2023/07/22 02:55:18;;;;;;;8.48;6.13;;;563.50;2432.00;;;;;;5089192;28;20054;-59
2023/07/22 02:57:46;;;;;;;11.77;6.55;;;563.60;2432.00;;;;;;5088918;28;20048;-59
2023/07/22 03:00:12;;;;;;;14.18;6.45;;;563.60;2432.00;;;;;;5089039;28;20026;-59
2023/07/22 03:02:39;;;;;;;10.55;5.90;;;563.60;2432.00;;;;;;5088061;28;20377;-59
2023/07/22 03:05:09;;;;;;;13.57;6.40;;;563.60;2432.00;;;;;;5088814;28;20027;-59
2023/07/22 03:07:36;;;;;;;13.80;6.22;;;563.70;2432.00;;;;;;5089024;28;20077;-59
2023/07/22 03:10:02;;;;;;;12.73;6.22;;;563.70;2432.00;;;;;;5088833;28;20103;-59
2023/07/22 03:12:28;;;;;;;11.50;6.45;;;563.70;2432.00;;;;;;5089049;28;20020;-60
2023/07/22 03:14:54;;;;;;;10.75;5.13;;;563.70;2432.00;;;;;;5088655;28;20024;-59
2023/07/22 03:17:20;;;;;;;11.88;6.18;;;563.90;2432.00;;;;;;5088817;28;20047;-60
2023/07/22 03:19:46;;;;;;;11.45;6.07;;;563.70;2432.00;;;;;;5088688;28;20027;-59
2023/07/22 03:22:18;;;;;;;8.75;6.03;;;563.80;2432.00;;;;;;5088744;28;20036;-59
2023/07/22 03:24:45;;;;;;;12.63;7.10;;;563.80;2432.00;;;;;;5088839;28;20028;-59
2023/07/22 03:27:12;;;;;;;11.45;6.38;;;563.70;2432.00;;;;;;5088690;28;20024;-58
2023/07/22 03:29:38;;;;;;;16.05;7.13;;;563.70;2432.00;;;;;;5088903;28;20114;-61
2023/07/22 03:32:04;;;;;;;11.30;6.20;;;563.80;2432.00;;;;;;5088686;28;20016;-59
2023/07/22 03:34:31;;;;;;;8.57;6.35;;;563.80;2432.00;;;;;;5091416;28;20024;-59
2023/07/22 03:36:57;;;;;;;10.60;4.97;;;563.80;2432.00;;;;;;5092455;28;20039;-59
2023/07/22 03:39:22;;;;;;;9.30;5.78;;;563.80;2432.00;;;;;;5092488;28;20028;-59
2023/07/22 03:41:48;;;;;;;12.93;5.57;;;563.80;2432.00;;;;;;5092547;28;20031;-59
2023/07/22 03:44:14;;;;;;;13.63;5.97;;;563.80;2432.00;;;;;;5092485;28;20031;-60
2023/07/22 03:46:40;;;;;;;12.05;5.75;;;563.80;2432.00;;;;;;5092537;28;20397;-59
2023/07/22 03:49:05;;;;;;;10.75;6.57;;;563.80;2432.00;;;;;;5092253;28;20518;-59
2023/07/22 03:51:31;;;;;;;12.60;6.13;;;563.60;2432.00;;;;;;5084975;28;20148;-59
2023/07/22 03:53:58;;;;;;;8.90;5.43;;;563.70;2432.00;;;;;;5080663;28;20075;-59
2023/07/22 03:56:24;;;;;;;15.25;6.47;;;563.60;2432.00;;;;;;5080231;28;20119;-59
2023/07/22 03:58:50;;;;;;;8.82;6.25;;;563.60;2432.00;;;;;;5081884;28;20095;-60
2023/07/22 04:01:16;;;;;;;14.85;7.93;;;563.50;2432.00;;;;;;5080247;28;20028;-59
2023/07/22 04:03:42;;;;;;;13.20;7.00;;;563.50;2432.00;;;;;;5080548;28;20021;-59
2023/07/22 04:06:07;;;;;;;13.40;6.35;;;563.40;2432.00;;;;;;5081711;28;20066;-62
2023/07/22 04:08:33;;;;;;;21.02;6.82;;;563.50;2432.00;;;;;;5079633;28;20042;-59
2023/07/22 04:10:59;;;;;;;13.15;6.13;;;563.50;2432.00;;;;;;5080854;28;20481;-58
2023/07/22 04:13:26;;;;;;;8.35;5.47;;;563.60;2432.00;;;;;;5081004;28;20024;-58
2023/07/22 04:15:52;;;;;;;12.18;6.72;;;563.60;2432.00;;;;;;5082293;28;20032;-58
2023/07/22 04:18:20;;;;;;;9.98;6.20;;;563.70;2432.00;;;;;;5091982;28;20017;-58
2023/07/22 04:20:47;;;;;;;10.93;6.32;;;563.90;2432.00;;;;;;5091804;28;20032;-59
2023/07/22 04:23:13;;;;;;;15.30;6.53;;;564.10;2432.00;;;;;;5091937;28;20034;-59
2023/07/22 04:25:44;;;;;;;9.52;6.75;;;564.10;2432.00;;;;;;5091757;28;20024;-59
2023/07/22 04:28:10;;;;;;;9.75;6.32;;;564.10;2432.00;;;;;;5091764;28;20039;-59
2023/07/22 04:30:36;;;;;;;8.27;6.00;;;588.80;2432.00;;;;;;5091569;28;20020;-59
2023/07/22 04:33:03;;;;;;;11.35;6.90;;;589.00;2432.00;;;;;;5091785;28;20028;-59
2023/07/22 04:35:34;;;;;;;11.02;6.75;;;589.10;2432.00;;;;;;5091335;28;20074;-58
2023/07/22 04:37:59;;;;;;;15.32;6.80;;;589.30;2432.00;;;;;;5091965;28;20020;-59
2023/07/22 04:40:25;;;;;;;10.27;6.57;;;589.50;2432.00;;;;;;5091489;28;20459;-58
2023/07/22 04:42:51;;;;;;;11.38;6.45;;;614.50;2432.00;;;;;;5073454;28;20082;-58
2023/07/22 04:45:18;;;;;;;10.48;6.22;;;614.70;2432.00;;;;;;5070075;28;20478;-58
2023/07/22 04:47:46;;;;;;;11.90;6.40;;;614.90;2432.00;;;;;;5070873;28;20063;-59
2023/07/22 04:50:13;;;;;;;12.20;6.28;;;615.00;2432.00;;;;;;5070936;28;20040;-58
2023/07/22 04:52:39;;;;;;;10.80;6.32;;;640.40;2432.00;;;;;;5071514;28;20467;-58
2023/07/22 04:55:09;;;;;;;10.35;5.70;;;666.20;2432.00;;;;;;5070945;28;20046;-58
2023/07/22 04:57:35;;;;;;;11.48;6.00;;;768.40;2432.00;;;;;;5070826;28;20115;-62
2023/07/22 05:00:06;;;;;;;11.10;5.93;;;819.80;2252.80;;;;;;5079772;28;20032;-61
2023/07/22 05:02:32;;;;;;;12.45;6.38;;;794.50;2252.80;;;;;;5091219;28;20024;-62
2023/07/22 05:04:58;;;;;;;10.95;6.32;;;845.30;2099.20;;;;;;5090609;28;20062;-61
2023/07/22 05:07:24;;;;;;;10.25;5.78;;;871.20;1945.60;;;;;;5090955;28;20074;-61
2023/07/22 05:09:51;;;;;;;18.48;6.70;;;922.00;1843.20;;;;;;5090936;28;20491;-61
2023/07/22 05:12:17;;;;;;;12.35;6.50;;;947.30;1766.40;;;;;;5090786;28;20084;-61
2023/07/22 05:14:42;;;;;;;11.45;6.78;;;947.20;1766.40;;;;;;5090918;28;20111;-61
2023/07/22 05:17:08;;;;;;;10.23;6.68;;;922.00;1817.60;;;;;;5090530;28;20032;-60
2023/07/22 05:19:34;;;;;;;16.92;6.60;;;947.20;1766.40;;;;;;5090527;28;20020;-61
2023/07/22 05:21:59;;;;;;;10.38;7.38;;;947.70;1740.80;;;;;;5090719;28;20032;-60
2023/07/22 05:24:25;;;;;;;10.55;6.93;;;973.60;1689.60;;;;;;5090374;28;20080;-59
2023/07/22 05:26:51;;;;;;;16.13;6.40;;;;;;;;;;5090891;28;20091;-66
2023/07/22 05:29:17;;;;;;;6.75;5.82;;;998.70;1664.00;;;;;;5090246;28;20028;-59
2023/07/22 05:31:42;;;;;;;9.43;6.38;;;1024.60;1561.60;;;;;;5090393;28;20077;-59
2023/07/22 05:34:08;;;;;;;9.00;6.80;;;1050.00;1510.40;;;;;;5090497;28;20020;-59
2023/07/22 05:36:34;;;;;;;9.48;6.63;;;1050.50;1484.80;;;;;;5090383;28;20501;-58
2023/07/22 05:38:59;;;;;;;12.10;6.45;;;1075.40;1459.20;;;;;;5090570;28;20031;-59
2023/07/22 05:41:26;;;;;;;11.02;7.25;;;1075.80;1433.60;;;;;;5090316;28;20024;-59
2023/07/22 05:43:52;;;;;;;11.70;6.35;;;1076.10;1433.60;;;;;;5090236;28;20099;-59
2023/07/22 05:46:17;;;;;;;9.00;5.70;;;1049.90;1484.80;;;;;;5090236;28;20445;-60
2023/07/22 05:48:43;;;;;;;12.23;6.78;;;972.80;1638.40;;;;;;5089748;28;20390;-60
2023/07/22 05:51:09;;;;;;;14.63;7.35;;;871.20;1792.00;;;;;;5089821;28;20144;-59
2023/07/22 05:53:35;;;;;;;13.43;7.05;;;845.00;1945.60;;;;;;5089564;28;20024;-59
2023/07/22 05:56:01;;;;;;;8.95;6.07;;;794.40;2022.40;;;;;;5089820;28;20119;-59
2023/07/22 05:58:26;;;;;;;11.93;6.68;;;768.30;2124.80;;;;;;5089753;28;20032;-59
2023/07/22 06:00:55;;;;;;;10.77;6.15;;;768.30;2176.00;;;;;;5089986;28;20059;-59
2023/07/22 06:03:21;;;;;;;13.10;7.47;;;768.50;2150.40;;;;;;5089962;28;20028;-59
2023/07/22 06:05:47;;;;;;;11.60;7.82;;;768.50;2201.60;;;;;;5089757;28;20028;-58
2023/07/22 06:08:12;;;;;;;10.05;7.00;;;819.30;2124.80;;;;;;5089841;28;20378;-58
2023/07/22 06:10:40;;;;;;;13.10;7.43;;;;;;;;;;5089868;28;20028;-58
2023/07/22 06:13:06;;;;;;;11.60;7.97;;;896.60;1868.80;;;;;;5089582;28;20020;-58
2023/07/22 06:15:32;;;;;;;9.82;8.18;;;1049.70;1587.20;;;;;;5089673;28;20477;-58
2023/07/22 06:17:59;;;;;;;11.50;8.30;;;1101.00;1459.20;;;;;;5089732;28;20028;-58
2023/07/22 06:20:25;;;;;;;14.68;9.20;;;1126.80;1408.00;;;;;;5089397;28;20023;-58
2023/07/22 06:22:50;;;;;;;10.02;8.18;;;1126.70;1408.00;;;;;;5089753;28;20020;-58
2023/07/22 06:25:16;;;;;;;14.48;9.50;;;1177.70;1305.60;;;;;;5089319;28;20466;-58
2023/07/22 06:27:42;;;;;;;13.60;9.90;;;1178.30;1280.00;;;;;;5089550;28;20439;-59
2023/07/22 06:30:08;;;;;;;10.75;9.85;;;1203.30;1254.40;;;;;;5089387;28;20627;-59
2023/07/22 06:32:36;;;;;;;11.25;8.57;;;1203.60;1228.80;;;;;;5089312;28;20021;-59
2023/07/22 06:35:03;;;;;;;11.98;10.70;;;1178.30;1254.40;;;;;;5089632;28;20028;-59
2023/07/22 06:37:28;;;;;;;10.05;8.98;;;1177.70;1228.80;;;;;;5089392;28;20113;-59
2023/07/22 06:39:54;;;;;;;10.43;9.43;;;1178.20;1203.20;;;;;;5087909;28;20115;-58
2023/07/22 06:42:20;;;;;;;11.18;9.35;;;1203.40;1203.20;;;;;;5089458;28;20031;-58
2023/07/22 06:44:45;;;;;;;11.13;9.93;;;1178.30;1228.80;;;;;;5088922;28;20081;-58
2023/07/22 06:47:11;;;;;;;11.43;10.27;;;1178.20;1228.80;;;;;;5089049;28;20518;-58
2023/07/22 06:49:37;;;;;;;11.57;10.60;;;1203.60;1203.20;;;;;;5088992;28;20020;-59
2023/07/22 06:52:03;;;;;;;12.80;10.10;;;1203.80;1177.60;;;;;;5089173;28;20426;-59
2023/07/22 06:54:29;;;;;;;12.13;10.90;;;1254.40;1152.00;;;;;;5089258;28;20016;-58
2023/07/22 06:56:55;;;;;;;10.77;9.77;;;1255.00;1152.00;;;;;;5088820;28;20038;-57
2023/07/22 06:59:21;;;;;;;10.48;9.02;;;1280.00;1100.80;;;;;;5089061;28;20099;-59
2023/07/22 07:01:46;;;;;;;10.13;9.05;;;1229.00;1152.00;;;;;;5088916;28;20028;-58
2023/07/22 07:04:12;;;;;;;11.05;9.95;;;1152.10;1254.40;;;;;;5088935;28;20023;-59
2023/07/22 07:06:40;;;;;;;9.80;8.70;;;1178.20;1152.00;;;;;;5088383;28;20062;-59
2023/07/22 07:09:06;;;;;;;12.27;11.07;;;1127.00;1203.20;;;;;;5089884;28;20023;-58
2023/07/22 07:11:32;;;;;;;8.00;7.13;;;1152.70;1203.20;;;;;;5093093;28;20028;-59
2023/07/22 07:13:58;;;;;;;10.48;9.45;;;1126.70;1254.40;;;;;;5093087;28;20034;-61
2023/07/22 07:16:25;;;;;;;21.10;10.32;;;1127.10;1228.80;;;;;;5093144;28;20049;-59
2023/07/22 07:18:51;;;;;;;11.18;8.93;;;1152.20;1228.80;;;;;;5093032;28;20023;-58
2023/07/22 07:21:17;;;;;;;12.00;8.52;;;1152.50;1228.80;;;;;;5092774;28;20135;-59
2023/07/22 07:23:44;;;;;;;11.77;10.65;;;1152.40;1228.80;;;;;;5092792;28;20024;-59
2023/07/22 07:26:10;;;;;;;12.23;10.98;;;1177.60;1203.20;;;;;;5092915;28;20478;-58
2023/07/22 07:28:35;;;;;;;11.90;10.77;;;1152.70;1203.20;;;;;;5092573;28;20060;-59
2023/07/22 07:31:01;;;;;;;10.70;9.57;;;1203.40;1152.00;;;;;;5092648;28;20114;-59
2023/07/22 07:33:27;;;;;;;12.27;11.07;;;1203.20;1152.00;;;;;;5092561;28;20462;-58
2023/07/22 07:35:52;;;;;;;11.05;10.15;;;1203.40;1152.00;;;;;;5092396;28;20074;-59
2023/07/22 07:38:18;;;;;;;12.13;10.60;;;1177.70;1203.20;;;;;;5092709;28;20054;-58
2023/07/22 07:40:44;;;;;;;14.27;10.18;;;1178.00;1177.60;;;;;;5092009;28;20024;-59
2023/07/22 07:43:09;;;;;;;12.15;11.00;;;1178.30;1152.00;;;;;;5092273;28;20069;-58
2023/07/22 07:45:39;;;;;;;12.38;11.15;;;1177.80;1152.00;;;;;;5092276;28;20028;-59
2023/07/22 07:48:05;;;;;;;11.98;10.98;;;1178.00;1152.00;;;;;;5092087;28;20048;-58
2023/07/22 07:50:32;;;;;;;10.23;7.50;;;1177.60;1177.60;;;;;;5092576;28;20020;-58
2023/07/22 07:52:59;;;;;;;14.18;10.15;;;1101.10;1280.00;;;;;;5092377;28;20031;-58
2023/07/22 07:55:25;;;;;;;14.23;10.32;;;1126.60;1280.00;;;;;;5085909;28;20419;-59
2023/07/22 07:57:51;;;;;;;11.32;7.32;;;1152.60;1203.20;;;;;;5090066;28;20027;-58
2023/07/22 08:00:17;;;;;;;12.02;10.88;;;1075.90;1280.00;;;;;;5092069;28;20077;-62
2023/07/22 08:02:43;;;;;;;12.68;11.23;;;1100.80;1305.60;;;;;;5092125;28;20420;-59
2023/07/22 08:05:09;;;;;;;11.07;10.18;;;1050.50;1331.20;;;;;;5092109;28;20074;-58
2023/07/22 08:07:34;;;;;;;11.43;10.35;;;1127.00;1228.80;;;;;;5091871;28;20031;-60
2023/07/22 08:10:00;;;;;;;10.57;9.48;;;1127.00;1228.80;;;;;;5092317;28;20032;-57
2023/07/22 08:12:26;;;;;;;11.52;10.45;;;1152.60;1203.20;;;;;;5092047;28;20042;-62
2023/07/22 08:14:53;;;;;;;10.75;9.80;;;1177.80;1152.00;;;;;;5091948;28;20514;-58
2023/07/22 08:17:19;;;;;;;11.65;10.60;;;1152.00;1203.20;;;;;;5091851;28;20482;-59
2023/07/22 08:19:45;;;;;;;11.95;10.52;;;1152.10;1203.20;;;;;;5090487;28;20027;-58
2023/07/22 08:22:10;;;;;;;10.63;9.60;;;1177.70;1152.00;;;;;;5091770;28;20019;-58
2023/07/22 08:24:36;;;;;;;19.05;9.48;;;1177.70;1177.60;;;;;;5091769;28;20038;-58
2023/07/22 08:27:02;;;;;;;9.82;9.02;;;1101.70;1228.80;;;;;;5092011;28;20028;-58
2023/07/22 08:29:28;;;;;;;9.13;8.15;;;1024.40;1356.80;;;;;;5090971;28;20024;-59
2023/07/22 08:31:53;;;;;;;8.43;7.63;;;973.30;1433.60;;;;;;5090762;28;20028;-57
2023/07/22 08:34:19;;;;;;;10.65;7.35;;;948.10;1459.20;;;;;;5090977;28;20028;-57
2023/07/22 08:36:45;;;;;;;8.85;6.85;;;947.50;1510.40;;;;;;5090738;28;20024;-57
2023/07/22 08:39:10;;;;;;;10.40;7.68;;;922.00;1510.40;;;;;;5090839;28;20012;-58
2023/07/22 08:41:36;;;;;;;10.63;6.60;;;896.90;1536.00;;;;;;5090246;28;20036;-58
2023/07/22 08:44:04;;;;;;;13.30;8.32;;;896.90;1536.00;;;;;;5090463;28;20031;-57
2023/07/22 08:46:33;;;;;;;10.23;7.05;;;896.20;1536.00;;;;;;5090470;28;20097;-57
2023/07/22 08:49:03;;;;;;;10.75;8.00;;;896.30;1587.20;;;;;;5090912;28;20070;-57
2023/07/22 08:51:32;;;;;;;12.00;7.88;;;896.00;1612.80;;;;;;5091221;28;20032;-61
2023/07/22 08:53:58;;;;;;;9.75;6.82;;;896.10;1638.40;;;;;;5085248;28;20020;-62
2023/07/22 08:56:25;;;;;;;9.25;7.80;;;896.10;1638.40;;;;;;5090775;28;20032;-64
2023/07/22 08:58:54;;;;;;;13.80;9.60;;;871.10;1689.60;;;;;;5090481;28;20020;-62
2023/07/22 09:01:21;;;;;;;11.43;7.72;;;871.30;1638.40;;;;;;5090868;28;20085;-62
2023/07/22 09:03:48;;;;;;;11.52;6.90;;;871.10;1612.80;;;;;;5090500;28;20024;-63
2023/07/22 09:06:14;;;;;;;9.55;7.05;;;870.90;1664.00;;;;;;5091037;28;20068;-63
2023/07/22 09:08:42;;;;;;;14.27;8.60;;;870.50;1664.00;;;;;;5091086;28;20383;-62
2023/07/22 09:11:07;;;;;;;20.10;9.85;;;870.70;1715.20;;;;;;5090954;28;20493;-62
2023/07/22 09:13:35;;;;;;;11.80;6.32;;;871.00;1664.00;;;;;;5090860;28;20091;-62
2023/07/22 09:16:02;;;;;;;8.80;6.32;;;870.90;1638.40;;;;;;5090748;28;20451;-62
2023/07/22 09:18:28;;;;;;;24.80;8.90;;;870.50;1689.60;;;;;;5090835;28;20016;-62
2023/07/22 09:20:53;;;;;;;9.68;7.00;;;870.70;1664.00;;;;;;5090520;28;20024;-62
2023/07/22 09:23:32;;;;;;;9.50;7.15;;;870.60;1689.60;;;;;;5090382;28;20059;-62
2023/07/22 09:26:12;;;;;;;9.43;6.93;;;845.60;1715.20;;;;;;5090499;28;20028;-62
2023/07/22 09:28:55;;;;;;;10.98;7.22;;;845.70;1715.20;;;;;;5087490;28;20024;-62
2023/07/22 09:31:22;;;;;;;14.55;7.65;;;845.30;1740.80;;;;;;5090137;28;20064;-63
2023/07/22 09:33:48;;;;;;;11.25;8.50;;;845.20;1740.80;;;;;;5089726;28;20020;-63
2023/07/22 09:36:14;;;;;;;18.73;9.20;;;844.90;1792.00;;;;;;5089692;28;20032;-61
2023/07/22 09:38:40;;;;;;;14.73;8.85;;;820.10;1766.40;;;;;;5089991;28;20112;-64
2023/07/22 09:41:06;;;;;;;13.75;8.18;;;820.00;1740.80;;;;;;5089147;28;20027;-62
2023/07/22 09:43:38;;;;;;;9.20;7.15;;;844.90;1792.00;;;;;;5090189;28;20491;-62
2023/07/22 09:46:10;;;;;;;10.48;7.65;;;845.40;1792.00;;;;;;5089803;28;20042;-63
2023/07/22 09:48:40;;;;;;;9.43;7.65;;;845.20;1792.00;;;;;;5089443;28;20067;-62
2023/07/22 09:51:11;;;;;;;13.23;7.35;;;845.70;1766.40;;;;;;5090016;28;20027;-62
2023/07/22 09:53:36;;;;;;;8.30;6.40;;;870.50;1740.80;;;;;;5089738;28;20385;-62
2023/07/22 09:56:05;;;;;;;12.38;7.47;;;845.70;1689.60;;;;;;5088408;28;20135;-62
2023/07/22 09:58:32;;;;;;;12.65;6.72;;;845.40;1715.20;;;;;;5090047;28;20131;-62
2023/07/22 10:01:00;;;;;;;11.68;7.68;;;870.50;1715.20;;;;;;5087804;28;20035;-62
2023/07/22 10:03:32;;;;;;;10.80;6.72;;;870.50;1689.60;;;;;;5088199;28;20030;-62
2023/07/22 10:06:03;;;;;;;11.15;7.22;;;870.90;1664.00;;;;;;5088639;28;20032;-62
2023/07/22 10:08:33;;;;;;;8.02;6.22;;;870.80;1715.20;;;;;;5088396;28;20533;-62
2023/07/22 10:11:01;;;;;;;14.48;7.45;;;870.80;1715.20;;;;;;5088418;28;20540;-63
2023/07/22 10:13:27;;;;;;;9.48;7.22;;;870.70;1664.00;;;;;;5088148;28;20024;-61
2023/07/22 10:15:53;;;;;;;8.93;6.95;;;845.70;1715.20;;;;;;5087665;28;20084;-62
2023/07/22 10:18:23;;;;;;;10.32;6.88;;;845.20;1715.20;;;;;;5087955;28;20466;-65
2023/07/22 10:20:49;;;;;;;9.50;7.07;;;820.10;1715.20;;;;;;5087787;28;20607;-65
2023/07/22 10:23:15;;;;;;;8.25;6.15;;;844.80;1740.80;;;;;;5087381;28;20032;-60
2023/07/22 10:25:42;;;;;;;11.52;7.88;;;820.10;1740.80;;;;;;5087817;28;20505;-61
2023/07/22 10:28:09;;;;;;;9.15;7.15;;;820.10;1766.40;;;;;;5088193;28;20021;-63
2023/07/22 10:30:35;;;;;;;13.55;8.05;;;820.00;1766.40;;;;;;5087927;28;20493;-62
2023/07/22 10:33:01;;;;;;;12.63;7.40;;;819.90;1766.40;;;;;;5087871;28;20036;-61
2023/07/22 10:35:32;;;;;;;7.80;6.78;;;819.80;1817.60;;;;;;5087713;28;20097;-62
2023/07/22 10:38:15;;;;;;;10.75;7.35;;;820.00;1817.60;;;;;;5087890;28;20538;-63
2023/07/22 10:40:51;;;;;;;11.90;6.90;;;819.50;1792.00;;;;;;5087616;28;20059;-60
2023/07/22 10:43:18;;;;;;;11.40;6.63;;;820.00;1766.40;;;;;;5086888;28;20503;-61
2023/07/22 10:45:50;;;;;;;6.55;5.85;;;820.10;1740.80;;;;;;5087569;28;20465;-62
2023/07/22 10:48:15;;;;;;;9.40;6.47;;;819.80;1766.40;;;;;;5087321;28;20056;-61
2023/07/22 10:50:42;;;;;;;11.73;6.75;;;819.70;1792.00;;;;;;5087972;28;20027;-64
2023/07/22 10:53:31;;;;;;;8.77;5.80;;;819.60;1792.00;;;;;;5087632;28;20028;-62
2023/07/22 10:56:04;;;;;;;7.75;6.25;;;819.50;1817.60;;;;;;5004959;28;20038;-61
2023/07/22 10:58:45;;;;;;;9.82;7.47;;;819.70;1792.00;;;;;;5004227;28;20078;-60
2023/07/22 11:01:29;;;;;;;9.15;6.50;;;820.10;1792.00;;;;;;5005046;28;20564;-60
2023/07/22 11:04:13;;;;;;;;;;;819.90;1766.40;;;;;;5005487;28;20026;-67
2023/07/22 11:06:47;;;;;;;12.30;6.95;;;819.70;1792.00;;;;;;5004772;28;20287;-61
2023/07/22 11:09:37;;;;;;;7.65;6.63;;;819.70;1792.00;;;;;;5006722;28;20029;-61
2023/07/22 11:12:07;;;;;;;10.32;7.38;;;819.60;1792.00;;;;;;5006945;28;20041;-61
2023/07/22 11:14:45;;;;;;;12.52;7.53;;;820.10;1766.40;;;;;;5006330;28;20524;-61
2023/07/22 11:17:11;;;;;;;17.85;8.05;;;844.90;1817.60;;;;;;5003880;28;20432;-60
2023/07/22 11:19:36;;;;;;;7.57;6.50;;;819.80;1868.80;;;;;;5006465;28;20090;-61
2023/07/22 11:22:03;;;;;;;10.73;6.90;;;820.10;1792.00;;;;;;5007060;28;20033;-60
2023/07/22 11:24:28;;;;;;;12.43;8.00;;;819.80;1843.20;;;;;;5006791;28;20022;-60
2023/07/22 11:26:54;;;;;;;8.80;6.82;;;820.10;1792.00;;;;;;5004947;28;20097;-64
2023/07/22 11:29:23;;;;;;;9.55;8.15;;;819.70;1792.00;;;;;;5005148;28;20126;-62
2023/07/22 11:31:50;;;;;;;10.73;7.35;;;819.80;1843.20;;;;;;5007350;28;20061;-65
2023/07/22 11:34:18;;;;;;;10.75;7.78;;;819.50;1843.20;;;;;;5087253;28;20036;-65
2023/07/22 11:36:45;;;;;;;9.35;6.60;;;819.50;1843.20;;;;;;5087417;28;20467;-61
2023/07/22 11:39:13;;;;;;;9.30;7.40;;;819.60;1792.00;;;;;;5088371;28;20044;-60
2023/07/22 11:41:41;;;;;;;11.30;7.28;;;819.80;1817.60;;;;;;5088084;28;20125;-60
2023/07/22 11:44:09;;;;;;;13.40;8.43;;;819.80;1792.00;;;;;;5088048;28;20021;-60
2023/07/22 11:46:50;;;;;;;11.30;8.05;;;819.80;1843.20;;;;;;5087735;28;20030;-61
2023/07/22 11:49:24;;;;;;;11.00;7.95;;;844.80;1817.60;;;;;;5086552;28;20032;-61
2023/07/22 11:51:50;;;;;;;8.75;7.45;;;844.90;1792.00;;;;;;5085608;28;20024;-63
2023/07/22 11:54:17;;;;;;;7.72;6.95;;;820.10;1766.40;;;;;;5088324;28;20050;-60
2023/07/22 11:56:43;;;;;;;10.38;7.88;;;820.10;1792.00;;;;;;5092217;28;20036;-60
2023/07/22 11:59:08;;;;;;;9.40;7.65;;;819.90;1792.00;;;;;;5092007;28;20046;-62
2023/07/22 12:01:34;;;;;;;8.32;7.35;;;819.90;1817.60;;;;;;5091726;28;20020;-61
2023/07/22 12:04:00;;;;;;;10.55;6.93;;;819.50;1843.20;;;;;;5091733;28;20023;-62
2023/07/22 12:06:27;;;;;;;10.40;7.60;;;819.50;1843.20;;;;;;5091690;28;20051;-62
2023/07/22 12:08:53;;;;;;;9.70;7.95;;;819.80;1817.60;;;;;;5080541;28;20082;-61